sensor_id;sensor_type;location;lat;lon;timestamp;temperature;humidity
11569;DHT22;5840;46.894;15.542;2023-07-13T00:01:46;21.00;99.90
11569;DHT22;5840;46.894;15.542;2023-07-13T00:04:15;21.00;99.90
11569;DHT22;5840;46.894;15.542;2023-07-13T00:06:44;21.00;99.90
11569;DHT22;5840;46.894;15.542;2023-07-13T00:09:11;21.00;99.90
11569;DHT22;5840;46.894;15.542;2023-07-13T00:11:39;21.00;99.90
11569;DHT22;5840;46.894;15.542;2023-07-13T00:14:07;21.00;99.90
11569;DHT22;5840;46.894;15.542;2023-07-13T00:16:37;21.00;99.90
11569;DHT22;5840;46.894;15.542;2023-07-13T00:19:05;21.00;99.90
11569;DHT22;5840;46.894;15.542;2023-07-13T00:21:32;20.90;99.90
11569;DHT22;5840;46.894;15.542;2023-07-13T00:23:59;20.90;99.90
11569;DHT22;5840;46.894;15.542;2023-07-13T00:26:26;20.80;99.90
11569;DHT22;5840;46.894;15.542;2023-07-13T00:28:53;20.80;99.90
11569;DHT22;5840;46.894;15.542;2023-07-13T00:31:20;20.70;99.90
11569;DHT22;5840;46.894;15.542;2023-07-13T00:33:49;20.70;99.90
11569;DHT22;5840;46.894;15.542;2023-07-13T00:36:15;20.70;99.90
11569;DHT22;5840;46.894;15.542;2023-07-13T00:38:42;20.70;99.90
11569;DHT22;5840;46.894;15.542;2023-07-13T00:41:10;20.60;99.90
11569;DHT22;5840;46.894;15.542;2023-07-13T00:43:37;20.60;99.90
11569;DHT22;5840;46.894;15.542;2023-07-13T00:46:22;20.60;99.90
11569;DHT22;5840;46.894;15.542;2023-07-13T00:48:51;20.60;99.90
11569;DHT22;5840;46.894;15.542;2023-07-13T00:51:23;20.50;99.90
11569;DHT22;5840;46.894;15.542;2023-07-13T00:53:53;20.50;99.90
11569;DHT22;5840;46.894;15.542;2023-07-13T00:56:20;20.50;99.90
11569;DHT22;5840;46.894;15.542;2023-07-13T00:58:48;20.50;99.90
11569;DHT22;5840;46.894;15.542;2023-07-13T01:01:15;20.40;99.90
11569;DHT22;5840;46.894;15.542;2023-07-13T01:03:43;20.30;99.90
11569;DHT22;5840;46.894;15.542;2023-07-13T01:06:11;20.20;99.90
11569;DHT22;5840;46.894;15.542;2023-07-13T01:08:38;20.20;99.90
11569;DHT22;5840;46.894;15.542;2023-07-13T01:11:06;20.20;99.90
11569;DHT22;5840;46.894;15.542;2023-07-13T01:13:33;20.20;99.90
11569;DHT22;5840;46.894;15.542;2023-07-13T01:16:05;20.20;99.90
11569;DHT22;5840;46.894;15.542;2023-07-13T01:18:38;20.20;99.90
11569;DHT22;5840;46.894;15.542;2023-07-13T01:21:06;20.20;99.90
11569;DHT22;5840;46.894;15.542;2023-07-13T01:23:33;20.20;99.90
11569;DHT22;5840;46.894;15.542;2023-07-13T01:26:00;20.20;99.90
11569;DHT22;5840;46.894;15.542;2023-07-13T01:28:28;20.10;99.90
11569;DHT22;5840;46.894;15.542;2023-07-13T01:30:57;20.10;99.90
11569;DHT22;5840;46.894;15.542;2023-07-13T01:33:25;20.00;99.90
11569;DHT22;5840;46.894;15.542;2023-07-13T01:35:52;19.90;99.90
11569;DHT22;5840;46.894;15.542;2023-07-13T01:38:22;19.80;99.90
11569;DHT22;5840;46.894;15.542;2023-07-13T01:40:49;19.70;99.90
11569;DHT22;5840;46.894;15.542;2023-07-13T01:43:17;19.70;99.90
11569;DHT22;5840;46.894;15.542;2023-07-13T01:45:44;19.50;99.90
11569;DHT22;5840;46.894;15.542;2023-07-13T01:48:11;19.30;99.90
11569;DHT22;5840;46.894;15.542;2023-07-13T01:50:38;19.20;99.90
11569;DHT22;5840;46.894;15.542;2023-07-13T01:53:05;19.00;99.90
11569;DHT22;5840;46.894;15.542;2023-07-13T01:55:34;18.60;99.90
11569;DHT22;5840;46.894;15.542;2023-07-13T01:58:01;18.30;99.90
11569;DHT22;5840;46.894;15.542;2023-07-13T02:00:29;18.20;99.90
11569;DHT22;5840;46.894;15.542;2023-07-13T02:02:56;18.20;99.90
11569;DHT22;5840;46.894;15.542;2023-07-13T02:05:23;18.10;99.90
11569;DHT22;5840;46.894;15.542;2023-07-13T02:07:51;18.00;99.90
11569;DHT22;5840;46.894;15.542;2023-07-13T02:10:18;18.00;99.90
11569;DHT22;5840;46.894;15.542;2023-07-13T02:12:48;17.90;99.90
11569;DHT22;5840;46.894;15.542;2023-07-13T02:15:16;17.90;99.90
11569;DHT22;5840;46.894;15.542;2023-07-13T02:17:43;17.90;99.90
11569;DHT22;5840;46.894;15.542;2023-07-13T02:20:10;17.90;99.90
11569;DHT22;5840;46.894;15.542;2023-07-13T02:22:37;18.00;99.90
11569;DHT22;5840;46.894;15.542;2023-07-13T02:25:05;18.00;99.90
11569;DHT22;5840;46.894;15.542;2023-07-13T02:27:32;18.10;99.90
11569;DHT22;5840;46.894;15.542;2023-07-13T02:30:00;18.20;99.90
11569;DHT22;5840;46.894;15.542;2023-07-13T02:32:27;18.20;99.90
11569;DHT22;5840;46.894;15.542;2023-07-13T02:34:54;18.20;99.90
11569;DHT22;5840;46.894;15.542;2023-07-13T02:37:21;18.30;99.90
11569;DHT22;5840;46.894;15.542;2023-07-13T02:39:48;18.30;99.90
11569;DHT22;5840;46.894;15.542;2023-07-13T02:42:15;18.20;99.90
11569;DHT22;5840;46.894;15.542;2023-07-13T02:44:42;18.20;99.90
11569;DHT22;5840;46.894;15.542;2023-07-13T02:47:10;18.20;99.90
11569;DHT22;5840;46.894;15.542;2023-07-13T02:49:38;18.10;99.90
11569;DHT22;5840;46.894;15.542;2023-07-13T02:52:06;18.10;99.90
11569;DHT22;5840;46.894;15.542;2023-07-13T02:54:33;18.10;99.90
11569;DHT22;5840;46.894;15.542;2023-07-13T02:57:00;18.10;99.90
11569;DHT22;5840;46.894;15.542;2023-07-13T02:59:27;18.10;99.90
11569;DHT22;5840;46.894;15.542;2023-07-13T03:01:54;18.10;99.90
11569;DHT22;5840;46.894;15.542;2023-07-13T03:04:22;18.10;99.90
11569;DHT22;5840;46.894;15.542;2023-07-13T03:06:50;18.20;99.90
11569;DHT22;5840;46.894;15.542;2023-07-13T03:09:16;18.10;99.90
11569;DHT22;5840;46.894;15.542;2023-07-13T03:11:43;18.10;99.90
11569;DHT22;5840;46.894;15.542;2023-07-13T03:14:10;18.10;99.90
11569;DHT22;5840;46.894;15.542;2023-07-13T03:16:37;18.10;99.90
11569;DHT22;5840;46.894;15.542;2023-07-13T03:19:04;18.20;99.90
11569;DHT22;5840;46.894;15.542;2023-07-13T03:21:32;18.10;99.90
11569;DHT22;5840;46.894;15.542;2023-07-13T03:23:59;18.10;99.90
11569;DHT22;5840;46.894;15.542;2023-07-13T03:26:26;18.10;99.90
11569;DHT22;5840;46.894;15.542;2023-07-13T03:28:53;18.10;99.90
11569;DHT22;5840;46.894;15.542;2023-07-13T03:31:22;18.10;99.90
11569;DHT22;5840;46.894;15.542;2023-07-13T03:33:50;18.10;99.90
11569;DHT22;5840;46.894;15.542;2023-07-13T03:36:19;18.10;99.90
11569;DHT22;5840;46.894;15.542;2023-07-13T03:38:50;18.10;99.90
11569;DHT22;5840;46.894;15.542;2023-07-13T03:41:17;18.10;99.90
11569;DHT22;5840;46.894;15.542;2023-07-13T03:43:44;18.10;99.90
11569;DHT22;5840;46.894;15.542;2023-07-13T03:46:13;18.10;99.90
11569;DHT22;5840;46.894;15.542;2023-07-13T03:48:41;18.00;99.90
11569;DHT22;5840;46.894;15.542;2023-07-13T03:51:09;17.90;99.90
11569;DHT22;5840;46.894;15.542;2023-07-13T03:53:38;17.90;99.90
11569;DHT22;5840;46.894;15.542;2023-07-13T03:56:08;17.90;99.90
11569;DHT22;5840;46.894;15.542;2023-07-13T03:58:37;17.90;99.90
11569;DHT22;5840;46.894;15.542;2023-07-13T04:01:06;17.90;99.90
11569;DHT22;5840;46.894;15.542;2023-07-13T04:03:33;17.90;99.90
11569;DHT22;5840;46.894;15.542;2023-07-13T04:06:01;17.90;99.90
11569;DHT22;5840;46.894;15.542;2023-07-13T04:08:30;18.00;99.90
11569;DHT22;5840;46.894;15.542;2023-07-13T04:10:58;18.00;99.90
11569;DHT22;5840;46.894;15.542;2023-07-13T04:13:26;18.10;99.90
11569;DHT22;5840;46.894;15.542;2023-07-13T04:15:54;18.00;99.90
11569;DHT22;5840;46.894;15.542;2023-07-13T04:18:21;18.00;99.90
11569;DHT22;5840;46.894;15.542;2023-07-13T04:20:48;18.00;99.90
11569;DHT22;5840;46.894;15.542;2023-07-13T04:23:16;18.00;99.90
11569;DHT22;5840;46.894;15.542;2023-07-13T04:25:44;18.00;99.90
11569;DHT22;5840;46.894;15.542;2023-07-13T04:28:11;18.00;99.90
11569;DHT22;5840;46.894;15.542;2023-07-13T04:30:39;18.00;99.90
11569;DHT22;5840;46.894;15.542;2023-07-13T04:33:06;18.00;99.90
11569;DHT22;5840;46.894;15.542;2023-07-13T04:35:34;18.00;99.90
11569;DHT22;5840;46.894;15.542;2023-07-13T04:38:01;18.00;99.90
11569;DHT22;5840;46.894;15.542;2023-07-13T04:40:28;18.10;99.90
11569;DHT22;5840;46.894;15.542;2023-07-13T04:42:55;18.10;99.90
11569;DHT22;5840;46.894;15.542;2023-07-13T04:45:22;18.20;99.90
11569;DHT22;5840;46.894;15.542;2023-07-13T04:47:51;18.20;99.90
11569;DHT22;5840;46.894;15.542;2023-07-13T04:50:18;18.30;99.90
11569;DHT22;5840;46.894;15.542;2023-07-13T04:52:48;18.30;99.90
11569;DHT22;5840;46.894;15.542;2023-07-13T04:55:16;18.30;99.90
11569;DHT22;5840;46.894;15.542;2023-07-13T04:57:43;18.30;99.90
11569;DHT22;5840;46.894;15.542;2023-07-13T05:00:11;18.30;99.90
11569;DHT22;5840;46.894;15.542;2023-07-13T05:02:39;18.30;99.90
11569;DHT22;5840;46.894;15.542;2023-07-13T05:05:08;18.30;99.90
11569;DHT22;5840;46.894;15.542;2023-07-13T05:07:35;18.30;99.90
11569;DHT22;5840;46.894;15.542;2023-07-13T05:10:02;18.40;99.90
11569;DHT22;5840;46.894;15.542;2023-07-13T05:12:30;18.40;99.90
11569;DHT22;5840;46.894;15.542;2023-07-13T05:14:57;18.40;99.90
11569;DHT22;5840;46.894;15.542;2023-07-13T05:17:23;18.40;99.90
11569;DHT22;5840;46.894;15.542;2023-07-13T05:19:50;18.50;99.90
11569;DHT22;5840;46.894;15.542;2023-07-13T05:22:19;18.50;99.90
11569;DHT22;5840;46.894;15.542;2023-07-13T05:24:45;18.50;99.90
11569;DHT22;5840;46.894;15.542;2023-07-13T05:27:12;18.60;99.90
11569;DHT22;5840;46.894;15.542;2023-07-13T05:29:39;18.60;99.90
11569;DHT22;5840;46.894;15.542;2023-07-13T05:32:07;18.60;99.90
11569;DHT22;5840;46.894;15.542;2023-07-13T05:34:33;18.80;99.90
11569;DHT22;5840;46.894;15.542;2023-07-13T05:37:00;18.90;99.90
11569;DHT22;5840;46.894;15.542;2023-07-13T05:39:28;19.00;99.90
11569;DHT22;5840;46.894;15.542;2023-07-13T05:41:55;19.10;99.90
11569;DHT22;5840;46.894;15.542;2023-07-13T05:44:22;19.20;99.90
11569;DHT22;5840;46.894;15.542;2023-07-13T05:46:49;19.30;99.90
11569;DHT22;5840;46.894;15.542;2023-07-13T05:49:16;19.40;99.90
11569;DHT22;5840;46.894;15.542;2023-07-13T05:51:43;19.50;99.90
11569;DHT22;5840;46.894;15.542;2023-07-13T05:54:10;19.60;99.90
11569;DHT22;5840;46.894;15.542;2023-07-13T05:56:38;19.70;99.90
11569;DHT22;5840;46.894;15.542;2023-07-13T05:59:05;19.90;99.90
11569;DHT22;5840;46.894;15.542;2023-07-13T06:01:32;20.00;99.90
11569;DHT22;5840;46.894;15.542;2023-07-13T06:03:59;20.10;99.90
11569;DHT22;5840;46.894;15.542;2023-07-13T06:06:26;20.20;99.90
11569;DHT22;5840;46.894;15.542;2023-07-13T06:08:53;20.30;99.90
11569;DHT22;5840;46.894;15.542;2023-07-13T06:11:21;20.40;99.90
11569;DHT22;5840;46.894;15.542;2023-07-13T06:13:50;20.60;99.90
11569;DHT22;5840;46.894;15.542;2023-07-13T06:16:17;20.70;99.90
11569;DHT22;5840;46.894;15.542;2023-07-13T06:18:44;20.80;99.90
11569;DHT22;5840;46.894;15.542;2023-07-13T06:21:13;20.90;99.90
11569;DHT22;5840;46.894;15.542;2023-07-13T06:23:40;21.00;99.90
11569;DHT22;5840;46.894;15.542;2023-07-13T06:26:08;21.20;99.90
11569;DHT22;5840;46.894;15.542;2023-07-13T06:28:36;21.30;99.90
11569;DHT22;5840;46.894;15.542;2023-07-13T06:31:06;21.40;99.90
11569;DHT22;5840;46.894;15.542;2023-07-13T06:33:34;21.50;99.90
11569;DHT22;5840;46.894;15.542;2023-07-13T06:36:01;21.50;99.90
11569;DHT22;5840;46.894;15.542;2023-07-13T06:38:28;21.60;99.90
11569;DHT22;5840;46.894;15.542;2023-07-13T06:40:55;21.60;99.90
11569;DHT22;5840;46.894;15.542;2023-07-13T06:43:22;21.80;99.90
11569;DHT22;5840;46.894;15.542;2023-07-13T06:45:51;21.90;99.90
11569;DHT22;5840;46.894;15.542;2023-07-13T06:48:19;22.00;99.90
11569;DHT22;5840;46.894;15.542;2023-07-13T06:50:48;22.30;99.90
11569;DHT22;5840;46.894;15.542;2023-07-13T06:53:18;22.50;99.90
11569;DHT22;5840;46.894;15.542;2023-07-13T06:55:45;22.70;99.90
11569;DHT22;5840;46.894;15.542;2023-07-13T06:58:12;23.00;99.90
11569;DHT22;5840;46.894;15.542;2023-07-13T07:00:39;23.30;99.90
11569;DHT22;5840;46.894;15.542;2023-07-13T07:03:06;23.60;99.90
11569;DHT22;5840;46.894;15.542;2023-07-13T07:05:35;23.80;99.90
11569;DHT22;5840;46.894;15.542;2023-07-13T07:08:02;24.00;99.90
11569;DHT22;5840;46.894;15.542;2023-07-13T07:10:30;24.20;99.90
11569;DHT22;5840;46.894;15.542;2023-07-13T07:12:57;24.40;99.90
11569;DHT22;5840;46.894;15.542;2023-07-13T07:15:24;24.40;99.90
11569;DHT22;5840;46.894;15.542;2023-07-13T07:17:51;24.50;99.90
11569;DHT22;5840;46.894;15.542;2023-07-13T07:20:18;24.60;99.90
11569;DHT22;5840;46.894;15.542;2023-07-13T07:22:47;24.80;99.90
11569;DHT22;5840;46.894;15.542;2023-07-13T07:25:14;24.90;99.90
11569;DHT22;5840;46.894;15.542;2023-07-13T07:27:41;25.00;99.90
11569;DHT22;5840;46.894;15.542;2023-07-13T07:30:09;25.10;99.90
11569;DHT22;5840;46.894;15.542;2023-07-13T07:32:36;25.20;99.90
11569;DHT22;5840;46.894;15.542;2023-07-13T07:35:04;25.30;99.90
11569;DHT22;5840;46.894;15.542;2023-07-13T07:37:31;25.40;99.90
11569;DHT22;5840;46.894;15.542;2023-07-13T07:39:59;25.50;99.90
11569;DHT22;5840;46.894;15.542;2023-07-13T07:42:26;25.50;99.90
11569;DHT22;5840;46.894;15.542;2023-07-13T07:44:53;25.60;99.90
11569;DHT22;5840;46.894;15.542;2023-07-13T07:47:20;25.80;99.90
11569;DHT22;5840;46.894;15.542;2023-07-13T07:49:48;25.90;99.90
11569;DHT22;5840;46.894;15.542;2023-07-13T07:52:15;26.00;99.90
11569;DHT22;5840;46.894;15.542;2023-07-13T07:54:42;26.10;99.90
11569;DHT22;5840;46.894;15.542;2023-07-13T07:57:10;26.20;99.90
11569;DHT22;5840;46.894;15.542;2023-07-13T07:59:37;26.30;99.90
11569;DHT22;5840;46.894;15.542;2023-07-13T08:02:05;26.40;99.90
11569;DHT22;5840;46.894;15.542;2023-07-13T08:04:32;26.70;99.90
11569;DHT22;5840;46.894;15.542;2023-07-13T08:06:59;26.80;99.90
11569;DHT22;5840;46.894;15.542;2023-07-13T08:09:28;26.80;99.90
11569;DHT22;5840;46.894;15.542;2023-07-13T08:11:55;26.80;99.90
11569;DHT22;5840;46.894;15.542;2023-07-13T08:14:23;26.70;99.90
11569;DHT22;5840;46.894;15.542;2023-07-13T08:16:50;26.60;99.90
11569;DHT22;5840;46.894;15.542;2023-07-13T08:19:17;26.50;99.90
11569;DHT22;5840;46.894;15.542;2023-07-13T08:21:44;26.40;99.90
11569;DHT22;5840;46.894;15.542;2023-07-13T08:24:13;26.50;99.90
11569;DHT22;5840;46.894;15.542;2023-07-13T08:26:40;26.40;99.90
11569;DHT22;5840;46.894;15.542;2023-07-13T08:29:07;26.50;99.90
11569;DHT22;5840;46.894;15.542;2023-07-13T08:31:36;26.60;99.90
11569;DHT22;5840;46.894;15.542;2023-07-13T08:34:03;26.80;99.90
11569;DHT22;5840;46.894;15.542;2023-07-13T08:36:30;26.90;99.90
11569;DHT22;5840;46.894;15.542;2023-07-13T08:38:56;27.20;99.90
11569;DHT22;5840;46.894;15.542;2023-07-13T08:41:23;27.40;99.90
11569;DHT22;5840;46.894;15.542;2023-07-13T08:43:54;27.40;99.90
11569;DHT22;5840;46.894;15.542;2023-07-13T08:46:26;27.30;99.90
11569;DHT22;5840;46.894;15.542;2023-07-13T08:48:59;27.40;99.90
11569;DHT22;5840;46.894;15.542;2023-07-13T08:51:39;27.60;99.90
11569;DHT22;5840;46.894;15.542;2023-07-13T08:54:16;27.70;99.90
11569;DHT22;5840;46.894;15.542;2023-07-13T08:56:45;28.00;99.90
11569;DHT22;5840;46.894;15.542;2023-07-13T08:59:14;28.10;99.90
11569;DHT22;5840;46.894;15.542;2023-07-13T09:02:00;28.30;99.90
11569;DHT22;5840;46.894;15.542;2023-07-13T09:04:35;28.50;99.90
11569;DHT22;5840;46.894;15.542;2023-07-13T09:07:11;28.70;99.90
11569;DHT22;5840;46.894;15.542;2023-07-13T09:09:54;28.90;99.10
11569;DHT22;5840;46.894;15.542;2023-07-13T09:12:26;28.80;98.10
11569;DHT22;5840;46.894;15.542;2023-07-13T09:14:56;28.80;99.90
11569;DHT22;5840;46.894;15.542;2023-07-13T09:17:26;28.90;98.80
11569;DHT22;5840;46.894;15.542;2023-07-13T09:19:58;29.10;97.20
11569;DHT22;5840;46.894;15.542;2023-07-13T09:22:27;29.20;99.00
11569;DHT22;5840;46.894;15.542;2023-07-13T09:25:02;29.30;97.60
11569;DHT22;5840;46.894;15.542;2023-07-13T09:27:36;29.40;99.10
11569;DHT22;5840;46.894;15.542;2023-07-13T09:30:22;29.60;97.70
11569;DHT22;5840;46.894;15.542;2023-07-13T09:32:52;29.80;99.70
11569;DHT22;5840;46.894;15.542;2023-07-13T09:35:25;30.10;99.90
11569;DHT22;5840;46.894;15.542;2023-07-13T09:37:57;30.20;97.60
11569;DHT22;5840;46.894;15.542;2023-07-13T09:40:30;30.40;98.50
11569;DHT22;5840;46.894;15.542;2023-07-13T09:43:01;30.50;96.70
11569;DHT22;5840;46.894;15.542;2023-07-13T09:45:32;30.70;97.50
11569;DHT22;5840;46.894;15.542;2023-07-13T09:48:04;30.80;96.50
11569;DHT22;5840;46.894;15.542;2023-07-13T09:50:33;30.90;96.50
11569;DHT22;5840;46.894;15.542;2023-07-13T09:53:01;31.00;96.50
11569;DHT22;5840;46.894;15.542;2023-07-13T09:55:31;30.90;96.00
11569;DHT22;5840;46.894;15.542;2023-07-13T09:58:04;30.90;99.30
11569;DHT22;5840;46.894;15.542;2023-07-13T10:00:32;31.10;99.10
11569;DHT22;5840;46.894;15.542;2023-07-13T10:03:01;30.80;96.80
11569;DHT22;5840;46.894;15.542;2023-07-13T10:05:37;30.70;95.60
11569;DHT22;5840;46.894;15.542;2023-07-13T10:08:04;30.60;95.10
11569;DHT22;5840;46.894;15.542;2023-07-13T10:10:33;30.60;95.20
11569;DHT22;5840;46.894;15.542;2023-07-13T10:13:02;30.60;94.10
11569;DHT22;5840;46.894;15.542;2023-07-13T10:15:30;30.50;94.60
11569;DHT22;5840;46.894;15.542;2023-07-13T10:17:58;30.50;96.40
11569;DHT22;5840;46.894;15.542;2023-07-13T10:20:26;30.60;95.80
11569;DHT22;5840;46.894;15.542;2023-07-13T10:23:00;30.60;95.20
11569;DHT22;5840;46.894;15.542;2023-07-13T10:25:32;30.60;95.50
11569;DHT22;5840;46.894;15.542;2023-07-13T10:28:03;30.80;93.40
11569;DHT22;5840;46.894;15.542;2023-07-13T10:30:35;30.90;98.30
11569;DHT22;5840;46.894;15.542;2023-07-13T10:33:10;30.90;96.70
11569;DHT22;5840;46.894;15.542;2023-07-13T10:35:40;30.70;97.20
11569;DHT22;5840;46.894;15.542;2023-07-13T10:38:12;30.50;98.70
11569;DHT22;5840;46.894;15.542;2023-07-13T10:40:41;30.30;96.70
11569;DHT22;5840;46.894;15.542;2023-07-13T10:43:20;30.20;95.60
11569;DHT22;5840;46.894;15.542;2023-07-13T10:45:49;30.10;97.50
11569;DHT22;5840;46.894;15.542;2023-07-13T10:48:17;30.20;98.70
11569;DHT22;5840;46.894;15.542;2023-07-13T10:50:46;30.30;96.20
11569;DHT22;5840;46.894;15.542;2023-07-13T10:53:21;30.10;94.90
11569;DHT22;5840;46.894;15.542;2023-07-13T10:55:58;29.80;96.60
11569;DHT22;5840;46.894;15.542;2023-07-13T10:58:31;29.60;96.50
11569;DHT22;5840;46.894;15.542;2023-07-13T11:01:06;29.30;96.40
11569;DHT22;5840;46.894;15.542;2023-07-13T11:03:35;28.90;97.70
11569;DHT22;5840;46.894;15.542;2023-07-13T11:06:12;28.50;97.50
11569;DHT22;5840;46.894;15.542;2023-07-13T11:08:53;28.10;98.40
11569;DHT22;5840;46.894;15.542;2023-07-13T11:11:37;28.10;99.90
11569;DHT22;5840;46.894;15.542;2023-07-13T11:14:05;28.30;99.90
11569;DHT22;5840;46.894;15.542;2023-07-13T11:16:51;28.30;99.90
11569;DHT22;5840;46.894;15.542;2023-07-13T11:19:40;28.20;99.40
11569;DHT22;5840;46.894;15.542;2023-07-13T11:22:13;28.10;99.90
11569;DHT22;5840;46.894;15.542;2023-07-13T11:24:58;27.80;99.80
11569;DHT22;5840;46.894;15.542;2023-07-13T11:27:36;27.50;99.90
11569;DHT22;5840;46.894;15.542;2023-07-13T11:30:23;27.30;99.90
11569;DHT22;5840;46.894;15.542;2023-07-13T11:33:02;27.10;99.90
11569;DHT22;5840;46.894;15.542;2023-07-13T11:35:34;27.10;99.90
11569;DHT22;5840;46.894;15.542;2023-07-13T11:38:03;26.90;99.90
11569;DHT22;5840;46.894;15.542;2023-07-13T11:40:38;26.80;99.90
11569;DHT22;5840;46.894;15.542;2023-07-13T11:43:06;26.60;99.90
11569;DHT22;5840;46.894;15.542;2023-07-13T11:45:33;26.30;99.90
11569;DHT22;5840;46.894;15.542;2023-07-13T11:48:01;25.90;99.90
11569;DHT22;5840;46.894;15.542;2023-07-13T11:50:28;25.60;99.90
11569;DHT22;5840;46.894;15.542;2023-07-13T11:52:58;25.50;99.90
11569;DHT22;5840;46.894;15.542;2023-07-13T11:55:25;25.50;99.90
11569;DHT22;5840;46.894;15.542;2023-07-13T11:57:58;25.70;99.90
11569;DHT22;5840;46.894;15.542;2023-07-13T12:00:30;26.00;99.90
11569;DHT22;5840;46.894;15.542;2023-07-13T12:03:01;26.30;99.90
11569;DHT22;5840;46.894;15.542;2023-07-13T12:05:30;26.50;99.90
11569;DHT22;5840;46.894;15.542;2023-07-13T12:07:58;26.70;99.90
11569;DHT22;5840;46.894;15.542;2023-07-13T12:10:26;26.70;99.90
11569;DHT22;5840;46.894;15.542;2023-07-13T12:12:57;26.50;99.90
11569;DHT22;5840;46.894;15.542;2023-07-13T12:15:32;26.20;99.90
11569;DHT22;5840;46.894;15.542;2023-07-13T12:18:02;26.00;99.90
11569;DHT22;5840;46.894;15.542;2023-07-13T12:20:35;25.70;99.90
11569;DHT22;5840;46.894;15.542;2023-07-13T12:23:05;25.50;99.90
11569;DHT22;5840;46.894;15.542;2023-07-13T12:25:32;25.20;99.90
11569;DHT22;5840;46.894;15.542;2023-07-13T12:28:20;25.00;99.90
11569;DHT22;5840;46.894;15.542;2023-07-13T12:30:49;24.80;99.90
11569;DHT22;5840;46.894;15.542;2023-07-13T12:33:16;24.70;99.90
11569;DHT22;5840;46.894;15.542;2023-07-13T12:35:46;24.50;99.90
11569;DHT22;5840;46.894;15.542;2023-07-13T12:38:15;24.30;99.90
11569;DHT22;5840;46.894;15.542;2023-07-13T12:40:42;24.20;99.90
11569;DHT22;5840;46.894;15.542;2023-07-13T12:43:13;24.00;99.90
11569;DHT22;5840;46.894;15.542;2023-07-13T12:45:55;23.90;99.90
11569;DHT22;5840;46.894;15.542;2023-07-13T12:48:22;23.70;99.90
11569;DHT22;5840;46.894;15.542;2023-07-13T12:50:50;23.50;99.90
11569;DHT22;5840;46.894;15.542;2023-07-13T12:53:20;23.30;99.90
11569;DHT22;5840;46.894;15.542;2023-07-13T12:55:49;23.20;99.90
11569;DHT22;5840;46.894;15.542;2023-07-13T12:58:27;23.10;99.90
11569;DHT22;5840;46.894;15.542;2023-07-13T13:00:55;23.00;99.90
11569;DHT22;5840;46.894;15.542;2023-07-13T13:03:27;22.80;99.90
11569;DHT22;5840;46.894;15.542;2023-07-13T13:05:58;22.70;99.90
11569;DHT22;5840;46.894;15.542;2023-07-13T13:08:28;22.70;99.90
11569;DHT22;5840;46.894;15.542;2023-07-13T13:10:55;22.70;99.90
11569;DHT22;5840;46.894;15.542;2023-07-13T13:13:24;22.50;99.90
11569;DHT22;5840;46.894;15.542;2023-07-13T13:15:51;22.50;99.90
11569;DHT22;5840;46.894;15.542;2023-07-13T13:18:20;22.30;99.90
11569;DHT22;5840;46.894;15.542;2023-07-13T13:20:47;22.00;99.90
11569;DHT22;5840;46.894;15.542;2023-07-13T13:23:16;21.80;99.90
11569;DHT22;5840;46.894;15.542;2023-07-13T13:25:43;21.70;99.90
11569;DHT22;5840;46.894;15.542;2023-07-13T13:28:16;21.50;99.90
11569;DHT22;5840;46.894;15.542;2023-07-13T13:30:45;21.40;99.90
11569;DHT22;5840;46.894;15.542;2023-07-13T13:33:16;21.20;99.90
11569;DHT22;5840;46.894;15.542;2023-07-13T13:35:43;21.10;99.90
11569;DHT22;5840;46.894;15.542;2023-07-13T13:38:15;21.10;99.90
11569;DHT22;5840;46.894;15.542;2023-07-13T13:40:43;21.00;99.90
11569;DHT22;5840;46.894;15.542;2023-07-13T13:43:15;20.80;99.90
11569;DHT22;5840;46.894;15.542;2023-07-13T13:45:45;20.80;99.90
11569;DHT22;5840;46.894;15.542;2023-07-13T13:48:17;20.70;99.90
11569;DHT22;5840;46.894;15.542;2023-07-13T13:50:45;20.60;99.90
11569;DHT22;5840;46.894;15.542;2023-07-13T13:53:12;20.60;99.90
11569;DHT22;5840;46.894;15.542;2023-07-13T13:55:40;20.50;99.90
11569;DHT22;5840;46.894;15.542;2023-07-13T13:58:08;20.50;99.90
11569;DHT22;5840;46.894;15.542;2023-07-13T14:00:37;20.60;99.90
11569;DHT22;5840;46.894;15.542;2023-07-13T14:03:12;20.70;99.90
11569;DHT22;5840;46.894;15.542;2023-07-13T14:05:40;20.80;99.90
11569;DHT22;5840;46.894;15.542;2023-07-13T14:08:13;20.90;99.90
11569;DHT22;5840;46.894;15.542;2023-07-13T14:10:40;20.90;99.90
11569;DHT22;5840;46.894;15.542;2023-07-13T14:13:14;20.90;99.90
11569;DHT22;5840;46.894;15.542;2023-07-13T14:15:43;21.00;99.90
11569;DHT22;5840;46.894;15.542;2023-07-13T14:18:11;21.20;99.90
11569;DHT22;5840;46.894;15.542;2023-07-13T14:20:43;21.50;99.90
11569;DHT22;5840;46.894;15.542;2023-07-13T14:23:11;21.80;99.90
11569;DHT22;5840;46.894;15.542;2023-07-13T14:25:38;22.10;99.90
11569;DHT22;5840;46.894;15.542;2023-07-13T14:28:23;22.40;99.90
11569;DHT22;5840;46.894;15.542;2023-07-13T14:30:50;22.70;99.90
11569;DHT22;5840;46.894;15.542;2023-07-13T14:33:19;22.80;99.90
11569;DHT22;5840;46.894;15.542;2023-07-13T14:35:46;22.90;99.90
11569;DHT22;5840;46.894;15.542;2023-07-13T14:38:18;23.10;99.90
11569;DHT22;5840;46.894;15.542;2023-07-13T14:40:46;23.20;99.90
11569;DHT22;5840;46.894;15.542;2023-07-13T14:43:15;23.30;99.90
11569;DHT22;5840;46.894;15.542;2023-07-13T14:45:46;23.40;99.90
11569;DHT22;5840;46.894;15.542;2023-07-13T14:48:17;23.20;99.90
11569;DHT22;5840;46.894;15.542;2023-07-13T14:50:46;23.20;99.90
11569;DHT22;5840;46.894;15.542;2023-07-13T14:53:14;23.10;99.90
11569;DHT22;5840;46.894;15.542;2023-07-13T14:55:41;23.00;99.90
11569;DHT22;5840;46.894;15.542;2023-07-13T14:58:09;23.00;99.90
11569;DHT22;5840;46.894;15.542;2023-07-13T15:00:37;23.00;99.90
11569;DHT22;5840;46.894;15.542;2023-07-13T15:03:05;22.90;99.90
11569;DHT22;5840;46.894;15.542;2023-07-13T15:05:39;23.00;99.90
11569;DHT22;5840;46.894;15.542;2023-07-13T15:08:09;22.90;99.90
11569;DHT22;5840;46.894;15.542;2023-07-13T15:10:37;22.90;99.90
11569;DHT22;5840;46.894;15.542;2023-07-13T15:13:14;22.90;99.90
11569;DHT22;5840;46.894;15.542;2023-07-13T15:15:44;22.90;99.90
11569;DHT22;5840;46.894;15.542;2023-07-13T15:18:15;22.90;99.90
11569;DHT22;5840;46.894;15.542;2023-07-13T15:20:44;22.90;99.90
11569;DHT22;5840;46.894;15.542;2023-07-13T15:23:15;22.80;99.90
11569;DHT22;5840;46.894;15.542;2023-07-13T15:25:43;22.80;99.90
11569;DHT22;5840;46.894;15.542;2023-07-13T15:28:11;22.80;99.90
11569;DHT22;5840;46.894;15.542;2023-07-13T15:30:41;22.70;99.90
11569;DHT22;5840;46.894;15.542;2023-07-13T15:33:12;22.60;99.90
11569;DHT22;5840;46.894;15.542;2023-07-13T15:35:40;22.50;99.90
11569;DHT22;5840;46.894;15.542;2023-07-13T15:38:18;22.40;99.90
11569;DHT22;5840;46.894;15.542;2023-07-13T15:40:46;22.40;99.90
11569;DHT22;5840;46.894;15.542;2023-07-13T15:43:14;22.30;99.90